sensor_id;sensor_type;location;lat;lon;timestamp;pressure;altitude;pressure_sealevel;temperature;humidity
11542;BME280;5827;49.482;7.716;2023-02-15T00:00:06;100211.81;;;2.31;100.00
11542;BME280;5827;49.482;7.716;2023-02-15T00:02:08;100209.22;;;2.39;100.00
11542;BME280;5827;49.482;7.716;2023-02-15T00:04:12;100209.69;;;2.35;100.00
11542;BME280;5827;49.482;7.716;2023-02-15T00:06:14;100202.69;;;2.25;100.00
11542;BME280;5827;49.482;7.716;2023-02-15T00:08:16;100198.91;;;2.10;100.00
11542;BME280;5827;49.482;7.716;2023-02-15T00:10:18;100191.81;;;2.11;100.00
11542;BME280;5827;49.482;7.716;2023-02-15T00:12:19;100190.75;;;2.21;100.00
11542;BME280;5827;49.482;7.716;2023-02-15T00:14:23;100183.97;;;1.83;100.00
11542;BME280;5827;49.482;7.716;2023-02-15T00:16:24;100188.75;;;2.23;100.00
11542;BME280;5827;49.482;7.716;2023-02-15T00:18:26;100185.00;;;2.26;100.00
11542;BME280;5827;49.482;7.716;2023-02-15T00:20:27;100188.19;;;2.38;100.00
11542;BME280;5827;49.482;7.716;2023-02-15T00:22:29;100188.66;;;2.07;100.00
11542;BME280;5827;49.482;7.716;2023-02-15T00:24:30;100189.38;;;2.17;100.00
11542;BME280;5827;49.482;7.716;2023-02-15T00:26:32;100188.66;;;2.33;100.00
11542;BME280;5827;49.482;7.716;2023-02-15T00:28:34;100187.38;;;2.37;100.00
11542;BME280;5827;49.482;7.716;2023-02-15T00:30:36;100185.56;;;2.38;100.00
11542;BME280;5827;49.482;7.716;2023-02-15T00:32:38;100182.59;;;2.41;100.00
11542;BME280;5827;49.482;7.716;2023-02-15T00:34:39;100177.28;;;1.89;100.00
11542;BME280;5827;49.482;7.716;2023-02-15T00:36:41;100178.97;;;2.16;100.00
11542;BME280;5827;49.482;7.716;2023-02-15T00:38:43;100180.38;;;2.28;100.00
11542;BME280;5827;49.482;7.716;2023-02-15T00:40:52;100181.09;;;2.38;100.00
11542;BME280;5827;49.482;7.716;2023-02-15T00:42:53;100184.00;;;2.27;100.00
11542;BME280;5827;49.482;7.716;2023-02-15T00:44:54;100173.63;;;2.34;100.00
11542;BME280;5827;49.482;7.716;2023-02-15T00:46:57;100177.69;;;2.46;100.00
11542;BME280;5827;49.482;7.716;2023-02-15T00:48:59;100180.06;;;2.31;100.00
11542;BME280;5827;49.482;7.716;2023-02-15T00:51:00;100184.25;;;2.42;100.00
11542;BME280;5827;49.482;7.716;2023-02-15T00:53:02;100178.66;;;1.75;100.00
11542;BME280;5827;49.482;7.716;2023-02-15T00:55:04;100181.28;;;2.19;100.00
11542;BME280;5827;49.482;7.716;2023-02-15T00:57:06;100175.78;;;2.30;100.00
11542;BME280;5827;49.482;7.716;2023-02-15T00:59:08;100185.75;;;2.18;100.00
11542;BME280;5827;49.482;7.716;2023-02-15T01:01:11;100176.38;;;2.24;100.00
11542;BME280;5827;49.482;7.716;2023-02-15T01:03:16;100177.06;;;2.26;100.00
11542;BME280;5827;49.482;7.716;2023-02-15T01:05:19;100184.81;;;2.27;100.00
11542;BME280;5827;49.482;7.716;2023-02-15T01:07:20;100178.91;;;2.34;100.00
11542;BME280;5827;49.482;7.716;2023-02-15T01:09:22;100178.31;;;1.78;100.00
11542;BME280;5827;49.482;7.716;2023-02-15T01:11:24;100167.59;;;1.97;100.00
11542;BME280;5827;49.482;7.716;2023-02-15T01:13:25;100163.25;;;1.88;100.00
11542;BME280;5827;49.482;7.716;2023-02-15T01:15:27;100161.41;;;2.07;100.00
11542;BME280;5827;49.482;7.716;2023-02-15T01:17:29;100161.09;;;1.92;100.00
11542;BME280;5827;49.482;7.716;2023-02-15T01:19:32;100168.69;;;2.13;100.00
11542;BME280;5827;49.482;7.716;2023-02-15T01:21:34;100168.44;;;2.24;100.00
11542;BME280;5827;49.482;7.716;2023-02-15T01:23:35;100170.34;;;2.14;100.00
11542;BME280;5827;49.482;7.716;2023-02-15T01:25:37;100164.66;;;2.26;100.00
11542;BME280;5827;49.482;7.716;2023-02-15T01:27:39;100168.00;;;2.11;100.00
11542;BME280;5827;49.482;7.716;2023-02-15T01:29:40;100159.47;;;2.43;100.00
11542;BME280;5827;49.482;7.716;2023-02-15T01:31:41;100172.91;;;2.23;100.00
11542;BME280;5827;49.482;7.716;2023-02-15T01:33:43;100165.91;;;2.14;100.00
11542;BME280;5827;49.482;7.716;2023-02-15T01:35:46;100168.97;;;2.27;100.00
11542;BME280;5827;49.482;7.716;2023-02-15T01:37:47;100164.88;;;2.33;100.00
11542;BME280;5827;49.482;7.716;2023-02-15T01:39:49;100169.69;;;2.12;100.00
11542;BME280;5827;49.482;7.716;2023-02-15T01:41:50;100169.13;;;2.26;100.00
11542;BME280;5827;49.482;7.716;2023-02-15T01:43:53;100159.25;;;2.10;100.00
11542;BME280;5827;49.482;7.716;2023-02-15T01:45:55;100157.25;;;2.30;100.00
11542;BME280;5827;49.482;7.716;2023-02-15T01:48:00;100164.75;;;2.43;100.00
11542;BME280;5827;49.482;7.716;2023-02-15T01:50:08;100156.16;;;2.41;100.00
11542;BME280;5827;49.482;7.716;2023-02-15T01:52:13;100147.88;;;2.36;100.00
11542;BME280;5827;49.482;7.716;2023-02-15T01:54:21;100148.06;;;2.42;100.00
11542;BME280;5827;49.482;7.716;2023-02-15T01:56:28;100143.69;;;2.25;100.00
11542;BME280;5827;49.482;7.716;2023-02-15T01:58:32;100134.56;;;2.01;100.00
11542;BME280;5827;49.482;7.716;2023-02-15T02:00:35;100134.41;;;2.29;100.00
11542;BME280;5827;49.482;7.716;2023-02-15T02:02:36;100138.13;;;2.36;100.00
11542;BME280;5827;49.482;7.716;2023-02-15T02:04:41;100143.28;;;2.46;100.00
11542;BME280;5827;49.482;7.716;2023-02-15T02:06:46;100138.81;;;2.46;100.00
11542;BME280;5827;49.482;7.716;2023-02-15T02:08:51;100139.81;;;2.45;100.00
11542;BME280;5827;49.482;7.716;2023-02-15T02:10:53;100136.66;;;2.42;100.00
11542;BME280;5827;49.482;7.716;2023-02-15T02:12:57;100137.16;;;2.45;100.00
11542;BME280;5827;49.482;7.716;2023-02-15T02:15:00;100152.56;;;2.50;100.00
11542;BME280;5827;49.482;7.716;2023-02-15T02:17:09;100149.22;;;2.40;100.00
11542;BME280;5827;49.482;7.716;2023-02-15T02:19:45;100149.75;;;2.43;100.00
11542;BME280;5827;49.482;7.716;2023-02-15T02:22:23;100143.66;;;2.51;100.00
11542;BME280;5827;49.482;7.716;2023-02-15T02:24:52;100137.84;;;2.47;100.00
11542;BME280;5827;49.482;7.716;2023-02-15T02:27:16;100139.03;;;2.27;100.00
11542;BME280;5827;49.482;7.716;2023-02-15T02:29:53;100134.47;;;2.37;100.00
11542;BME280;5827;49.482;7.716;2023-02-15T02:32:24;100133.41;;;2.22;100.00
11542;BME280;5827;49.482;7.716;2023-02-15T02:34:35;100133.16;;;2.07;100.00
11542;BME280;5827;49.482;7.716;2023-02-15T02:36:44;100123.13;;;2.19;100.00
11542;BME280;5827;49.482;7.716;2023-02-15T02:39:00;100122.59;;;2.15;100.00
11542;BME280;5827;49.482;7.716;2023-02-15T02:41:11;100116.94;;;2.10;100.00
11542;BME280;5827;49.482;7.716;2023-02-15T02:43:18;100118.88;;;2.26;100.00
11542;BME280;5827;49.482;7.716;2023-02-15T02:45:26;100116.28;;;2.34;100.00
11542;BME280;5827;49.482;7.716;2023-02-15T02:47:32;100112.31;;;2.30;100.00
11542;BME280;5827;49.482;7.716;2023-02-15T02:49:38;100110.25;;;2.16;100.00
11542;BME280;5827;49.482;7.716;2023-02-15T02:51:40;100109.59;;;2.22;100.00
11542;BME280;5827;49.482;7.716;2023-02-15T02:53:41;100119.06;;;2.33;100.00
11542;BME280;5827;49.482;7.716;2023-02-15T02:55:45;100119.53;;;2.28;100.00
11542;BME280;5827;49.482;7.716;2023-02-15T02:57:52;100121.13;;;2.47;100.00
11542;BME280;5827;49.482;7.716;2023-02-15T02:59:55;100123.66;;;2.48;100.00
11542;BME280;5827;49.482;7.716;2023-02-15T03:02:03;100118.84;;;2.52;100.00
11542;BME280;5827;49.482;7.716;2023-02-15T03:04:09;100112.72;;;2.51;100.00
11542;BME280;5827;49.482;7.716;2023-02-15T03:06:16;100107.47;;;2.60;100.00
11542;BME280;5827;49.482;7.716;2023-02-15T03:08:21;100102.47;;;2.48;100.00
11542;BME280;5827;49.482;7.716;2023-02-15T03:10:24;100100.78;;;2.39;100.00
11542;BME280;5827;49.482;7.716;2023-02-15T03:12:28;100103.44;;;2.47;100.00
11542;BME280;5827;49.482;7.716;2023-02-15T03:14:31;100100.38;;;2.26;100.00
11542;BME280;5827;49.482;7.716;2023-02-15T03:16:33;100102.16;;;2.51;100.00
11542;BME280;5827;49.482;7.716;2023-02-15T03:18:37;100094.84;;;2.11;100.00
11542;BME280;5827;49.482;7.716;2023-02-15T03:20:40;100089.53;;;1.85;100.00
11542;BME280;5827;49.482;7.716;2023-02-15T03:22:47;100086.81;;;2.21;100.00
11542;BME280;5827;49.482;7.716;2023-02-15T03:24:54;100092.88;;;2.13;100.00
11542;BME280;5827;49.482;7.716;2023-02-15T03:26:58;100081.03;;;2.25;100.00
11542;BME280;5827;49.482;7.716;2023-02-15T03:29:01;100080.59;;;2.38;100.00
11542;BME280;5827;49.482;7.716;2023-02-15T03:31:05;100079.09;;;2.36;100.00
11542;BME280;5827;49.482;7.716;2023-02-15T03:33:09;100078.28;;;2.35;100.00
11542;BME280;5827;49.482;7.716;2023-02-15T03:35:11;100073.72;;;2.53;100.00
11542;BME280;5827;49.482;7.716;2023-02-15T03:37:18;100078.03;;;2.54;100.00
11542;BME280;5827;49.482;7.716;2023-02-15T03:39:30;100081.88;;;2.26;100.00
11542;BME280;5827;49.482;7.716;2023-02-15T03:41:37;100074.34;;;2.39;100.00
11542;BME280;5827;49.482;7.716;2023-02-15T03:43:45;100067.94;;;2.16;100.00
11542;BME280;5827;49.482;7.716;2023-02-15T03:45:52;100078.59;;;2.32;100.00
11542;BME280;5827;49.482;7.716;2023-02-15T03:47:57;100078.94;;;2.37;100.00
11542;BME280;5827;49.482;7.716;2023-02-15T03:50:03;100076.63;;;2.34;100.00
11542;BME280;5827;49.482;7.716;2023-02-15T03:52:28;100079.53;;;2.23;100.00
11542;BME280;5827;49.482;7.716;2023-02-15T03:54:33;100077.06;;;2.21;100.00
11542;BME280;5827;49.482;7.716;2023-02-15T03:56:45;100076.13;;;2.04;100.00
11542;BME280;5827;49.482;7.716;2023-02-15T03:59:07;100076.06;;;2.22;100.00
11542;BME280;5827;49.482;7.716;2023-02-15T04:01:33;100086.22;;;2.35;100.00
11542;BME280;5827;49.482;7.716;2023-02-15T04:03:57;100083.09;;;2.40;100.00
11542;BME280;5827;49.482;7.716;2023-02-15T04:06:02;100077.16;;;2.46;100.00
11542;BME280;5827;49.482;7.716;2023-02-15T04:08:04;100077.31;;;2.44;100.00
11542;BME280;5827;49.482;7.716;2023-02-15T04:10:07;100071.91;;;2.20;100.00
11542;BME280;5827;49.482;7.716;2023-02-15T04:12:26;100072.59;;;2.22;100.00
11542;BME280;5827;49.482;7.716;2023-02-15T04:14:28;100076.16;;;2.39;100.00
11542;BME280;5827;49.482;7.716;2023-02-15T04:16:47;100079.50;;;2.49;100.00
11542;BME280;5827;49.482;7.716;2023-02-15T04:18:49;100081.47;;;2.47;100.00
11542;BME280;5827;49.482;7.716;2023-02-15T04:21:08;100081.94;;;2.42;100.00
11542;BME280;5827;49.482;7.716;2023-02-15T04:23:27;100084.44;;;2.44;100.00
11542;BME280;5827;49.482;7.716;2023-02-15T04:25:48;100086.34;;;2.34;100.00
11542;BME280;5827;49.482;7.716;2023-02-15T04:27:51;100086.91;;;2.45;100.00
11542;BME280;5827;49.482;7.716;2023-02-15T04:29:52;100079.44;;;2.07;100.00
11542;BME280;5827;49.482;7.716;2023-02-15T04:31:55;100079.59;;;2.05;100.00
11542;BME280;5827;49.482;7.716;2023-02-15T04:33:57;100078.34;;;2.17;100.00
11542;BME280;5827;49.482;7.716;2023-02-15T04:36:00;100077.94;;;2.30;100.00
11542;BME280;5827;49.482;7.716;2023-02-15T04:38:01;100080.81;;;2.45;100.00
11542;BME280;5827;49.482;7.716;2023-02-15T04:40:04;100078.16;;;2.45;100.00
11542;BME280;5827;49.482;7.716;2023-02-15T04:42:07;100072.94;;;2.27;100.00
11542;BME280;5827;49.482;7.716;2023-02-15T04:44:09;100071.69;;;1.87;100.00
11542;BME280;5827;49.482;7.716;2023-02-15T04:46:11;100072.81;;;2.02;100.00
11542;BME280;5827;49.482;7.716;2023-02-15T04:48:13;100070.19;;;2.11;100.00
11542;BME280;5827;49.482;7.716;2023-02-15T04:50:14;100063.13;;;2.19;100.00
11542;BME280;5827;49.482;7.716;2023-02-15T04:52:16;100077.94;;;2.30;100.00
11542;BME280;5827;49.482;7.716;2023-02-15T04:54:18;100067.31;;;1.70;100.00
11542;BME280;5827;49.482;7.716;2023-02-15T04:56:20;100059.94;;;1.82;100.00
11542;BME280;5827;49.482;7.716;2023-02-15T04:58:23;100068.59;;;1.92;100.00
11542;BME280;5827;49.482;7.716;2023-02-15T05:00:24;100066.06;;;2.08;100.00
11542;BME280;5827;49.482;7.716;2023-02-15T05:02:27;100064.31;;;2.17;100.00
11542;BME280;5827;49.482;7.716;2023-02-15T05:04:29;100063.44;;;2.08;100.00
11542;BME280;5827;49.482;7.716;2023-02-15T05:06:30;100070.41;;;1.91;100.00
11542;BME280;5827;49.482;7.716;2023-02-15T05:08:32;100069.88;;;1.88;100.00
11542;BME280;5827;49.482;7.716;2023-02-15T05:10:33;100064.66;;;1.96;100.00
11542;BME280;5827;49.482;7.716;2023-02-15T05:12:35;100065.72;;;2.03;100.00
11542;BME280;5827;49.482;7.716;2023-02-15T05:14:38;100066.06;;;2.08;100.00
11542;BME280;5827;49.482;7.716;2023-02-15T05:16:39;100069.31;;;2.28;100.00
11542;BME280;5827;49.482;7.716;2023-02-15T05:18:41;100074.28;;;2.31;100.00
11542;BME280;5827;49.482;7.716;2023-02-15T05:20:42;100072.47;;;2.32;100.00
11542;BME280;5827;49.482;7.716;2023-02-15T05:22:44;100076.88;;;2.23;100.00
11542;BME280;5827;49.482;7.716;2023-02-15T05:24:45;100065.88;;;1.58;100.00
11542;BME280;5827;49.482;7.716;2023-02-15T05:27:05;100066.75;;;1.84;100.00
11542;BME280;5827;49.482;7.716;2023-02-15T05:29:21;100067.19;;;2.06;100.00
11542;BME280;5827;49.482;7.716;2023-02-15T05:31:23;100069.25;;;2.20;100.00
11542;BME280;5827;49.482;7.716;2023-02-15T05:33:25;100076.56;;;2.26;100.00
11542;BME280;5827;49.482;7.716;2023-02-15T05:35:26;100077.94;;;2.04;100.00
11542;BME280;5827;49.482;7.716;2023-02-15T05:37:28;100076.84;;;2.15;100.00
11542;BME280;5827;49.482;7.716;2023-02-15T05:39:29;100078.81;;;2.13;100.00
11542;BME280;5827;49.482;7.716;2023-02-15T05:41:31;100063.44;;;1.64;100.00
11542;BME280;5827;49.482;7.716;2023-02-15T05:43:33;100067.13;;;1.89;100.00
11542;BME280;5827;49.482;7.716;2023-02-15T05:45:34;100079.00;;;2.19;100.00
11542;BME280;5827;49.482;7.716;2023-02-15T05:47:37;100079.53;;;2.23;100.00
11542;BME280;5827;49.482;7.716;2023-02-15T05:49:39;100083.53;;;2.27;100.00
11542;BME280;5827;49.482;7.716;2023-02-15T05:51:40;100082.13;;;2.15;100.00
11542;BME280;5827;49.482;7.716;2023-02-15T05:53:42;100089.31;;;1.78;100.00
11542;BME280;5827;49.482;7.716;2023-02-15T05:55:44;100081.47;;;1.69;100.00
11542;BME280;5827;49.482;7.716;2023-02-15T05:57:45;100089.84;;;2.08;100.00
11542;BME280;5827;49.482;7.716;2023-02-15T05:59:47;100093.56;;;2.23;100.00
11542;BME280;5827;49.482;7.716;2023-02-15T06:01:48;100089.75;;;2.18;100.00
11542;BME280;5827;49.482;7.716;2023-02-15T06:03:51;100094.03;;;2.19;100.00
11542;BME280;5827;49.482;7.716;2023-02-15T06:05:54;100082.16;;;2.23;100.00
11542;BME280;5827;49.482;7.716;2023-02-15T06:07:55;100092.28;;;2.27;100.00
11542;BME280;5827;49.482;7.716;2023-02-15T06:09:57;100092.63;;;2.33;100.00
11542;BME280;5827;49.482;7.716;2023-02-15T06:11:58;100090.03;;;2.41;100.00
11542;BME280;5827;49.482;7.716;2023-02-15T06:14:00;100094.81;;;2.37;100.00
11542;BME280;5827;49.482;7.716;2023-02-15T06:16:01;100096.16;;;2.41;100.00
11542;BME280;5827;49.482;7.716;2023-02-15T06:18:03;100099.78;;;2.40;100.00
11542;BME280;5827;49.482;7.716;2023-02-15T06:20:07;100095.31;;;2.41;100.00
11542;BME280;5827;49.482;7.716;2023-02-15T06:22:09;100099.84;;;2.48;100.00
11542;BME280;5827;49.482;7.716;2023-02-15T06:24:11;100091.63;;;2.34;100.00
11542;BME280;5827;49.482;7.716;2023-02-15T06:26:12;100096.78;;;2.35;100.00
11542;BME280;5827;49.482;7.716;2023-02-15T06:28:14;100096.78;;;2.35;100.00
11542;BME280;5827;49.482;7.716;2023-02-15T06:30:15;100096.31;;;2.40;100.00
11542;BME280;5827;49.482;7.716;2023-02-15T06:32:17;100103.56;;;2.38;100.00
11542;BME280;5827;49.482;7.716;2023-02-15T06:34:18;100090.78;;;2.25;100.00
11542;BME280;5827;49.482;7.716;2023-02-15T06:36:21;100100.97;;;2.12;100.00
11542;BME280;5827;49.482;7.716;2023-02-15T06:38:23;100094.16;;;2.09;100.00
11542;BME280;5827;49.482;7.716;2023-02-15T06:40:24;100097.00;;;1.90;100.00
11542;BME280;5827;49.482;7.716;2023-02-15T06:42:26;100099.09;;;2.04;100.00
11542;BME280;5827;49.482;7.716;2023-02-15T06:44:27;100099.47;;;1.91;100.00
11542;BME280;5827;49.482;7.716;2023-02-15T06:46:29;100114.22;;;1.94;100.00
11542;BME280;5827;49.482;7.716;2023-02-15T06:48:30;100111.25;;;1.53;100.00
11542;BME280;5827;49.482;7.716;2023-02-15T06:50:32;100108.97;;;1.58;100.00
11542;BME280;5827;49.482;7.716;2023-02-15T06:52:35;100105.50;;;1.75;100.00
11542;BME280;5827;49.482;7.716;2023-02-15T06:54:36;100102.72;;;1.59;100.00
11542;BME280;5827;49.482;7.716;2023-02-15T06:56:38;100109.31;;;1.81;100.00
11542;BME280;5827;49.482;7.716;2023-02-15T06:58:40;100111.22;;;1.89;100.00
11542;BME280;5827;49.482;7.716;2023-02-15T07:00:41;100108.47;;;1.98;100.00
11542;BME280;5827;49.482;7.716;2023-02-15T07:02:43;100115.09;;;2.02;100.00
11542;BME280;5827;49.482;7.716;2023-02-15T07:04:44;100118.78;;;2.10;100.00
11542;BME280;5827;49.482;7.716;2023-02-15T07:06:46;100112.66;;;2.09;100.00
11542;BME280;5827;49.482;7.716;2023-02-15T07:08:49;100116.00;;;2.11;100.00
11542;BME280;5827;49.482;7.716;2023-02-15T07:10:51;100114.97;;;1.86;100.00
11542;BME280;5827;49.482;7.716;2023-02-15T07:12:53;100118.56;;;2.03;100.00
11542;BME280;5827;49.482;7.716;2023-02-15T07:14:53;100117.22;;;1.99;100.00
11542;BME280;5827;49.482;7.716;2023-02-15T07:16:54;100113.41;;;2.01;100.00
11542;BME280;5827;49.482;7.716;2023-02-15T07:18:56;100118.97;;;1.90;100.00
11542;BME280;5827;49.482;7.716;2023-02-15T07:20:57;100110.47;;;2.04;100.00
11542;BME280;5827;49.482;7.716;2023-02-15T07:22:59;100108.19;;;2.10;100.00
11542;BME280;5827;49.482;7.716;2023-02-15T07:25:02;100106.44;;;2.18;100.00
11542;BME280;5827;49.482;7.716;2023-02-15T07:27:06;100109.56;;;2.14;100.00
11542;BME280;5827;49.482;7.716;2023-02-15T07:29:07;100111.31;;;2.05;100.00
11542;BME280;5827;49.482;7.716;2023-02-15T07:31:09;100104.91;;;2.08;100.00
11542;BME280;5827;49.482;7.716;2023-02-15T07:33:10;100110.28;;;1.98;100.00
11542;BME280;5827;49.482;7.716;2023-02-15T07:35:24;100108.38;;;2.08;100.00
11542;BME280;5827;49.482;7.716;2023-02-15T07:37:27;100104.56;;;2.11;100.00
11542;BME280;5827;49.482;7.716;2023-02-15T07:39:28;100106.38;;;2.10;100.00
11542;BME280;5827;49.482;7.716;2023-02-15T07:41:31;100105.13;;;1.96;100.00
11542;BME280;5827;49.482;7.716;2023-02-15T07:43:35;100105.81;;;1.98;100.00
11542;BME280;5827;49.482;7.716;2023-02-15T07:45:37;100104.56;;;2.11;100.00
11542;BME280;5827;49.482;7.716;2023-02-15T07:47:38;100115.50;;;1.90;100.00
11542;BME280;5827;49.482;7.716;2023-02-15T07:49:40;100100.06;;;2.03;100.00
11542;BME280;5827;49.482;7.716;2023-02-15T07:51:41;100099.25;;;2.02;100.00
11542;BME280;5827;49.482;7.716;2023-02-15T07:53:43;100102.09;;;2.09;100.00
11542;BME280;5827;49.482;7.716;2023-02-15T07:55:44;100099.13;;;2.12;100.00
11542;BME280;5827;49.482;7.716;2023-02-15T07:57:48;100101.06;;;2.02;100.00
11542;BME280;5827;49.482;7.716;2023-02-15T07:59:50;100098.25;;;2.03;100.00
11542;BME280;5827;49.482;7.716;2023-02-15T08:01:52;100093.63;;;2.06;100.00
11542;BME280;5827;49.482;7.716;2023-02-15T08:03:56;100087.19;;;1.82;100.00
11542;BME280;5827;49.482;7.716;2023-02-15T08:05:59;100089.03;;;2.08;100.00
11542;BME280;5827;49.482;7.716;2023-02-15T08:08:09;100081.09;;;2.08;100.00
11542;BME280;5827;49.482;7.716;2023-02-15T08:10:30;100077.56;;;1.99;100.00
11542;BME280;5827;49.482;7.716;2023-02-15T08:12:45;100079.91;;;1.76;100.00
11542;BME280;5827;49.482;7.716;2023-02-15T08:14:48;100074.34;;;1.87;100.00
11542;BME280;5827;49.482;7.716;2023-02-15T08:16:51;100074.16;;;1.81;100.00
11542;BME280;5827;49.482;7.716;2023-02-15T08:18:53;100080.63;;;1.42;100.00
11542;BME280;5827;49.482;7.716;2023-02-15T08:20:55;100079.47;;;1.63;100.00
11542;BME280;5827;49.482;7.716;2023-02-15T08:22:56;100071.84;;;1.60;100.00
11542;BME280;5827;49.482;7.716;2023-02-15T08:24:57;100073.16;;;1.82;100.00
11542;BME280;5827;49.482;7.716;2023-02-15T08:27:00;100068.28;;;1.51;100.00
11542;BME280;5827;49.482;7.716;2023-02-15T08:29:03;100072.53;;;1.88;100.00
11542;BME280;5827;49.482;7.716;2023-02-15T08:31:07;100078.13;;;2.11;100.00
11542;BME280;5827;49.482;7.716;2023-02-15T08:33:08;100077.41;;;2.00;100.00
11542;BME280;5827;49.482;7.716;2023-02-15T08:35:10;100070.63;;;1.72;100.00
11542;BME280;5827;49.482;7.716;2023-02-15T08:37:12;100082.41;;;2.03;100.00
11542;BME280;5827;49.482;7.716;2023-02-15T08:39:14;100077.94;;;2.04;100.00
11542;BME280;5827;49.482;7.716;2023-02-15T08:41:17;100075.22;;;1.96;100.00
11542;BME280;5827;49.482;7.716;2023-02-15T08:43:20;100088.50;;;2.04;100.00
11542;BME280;5827;49.482;7.716;2023-02-15T08:45:21;100079.00;;;2.19;100.00
11542;BME280;5827;49.482;7.716;2023-02-15T08:47:27;100077.72;;;2.23;100.00
11542;BME280;5827;49.482;7.716;2023-02-15T08:49:28;100078.22;;;2.27;100.00
11542;BME280;5827;49.482;7.716;2023-02-15T08:51:31;100076.41;;;1.93;100.00
11542;BME280;5827;49.482;7.716;2023-02-15T08:53:33;100069.63;;;1.73;100.00
11542;BME280;5827;49.482;7.716;2023-02-15T08:55:34;100079.81;;;2.12;100.00
11542;BME280;5827;49.482;7.716;2023-02-15T08:57:36;100072.53;;;2.14;100.00
11542;BME280;5827;49.482;7.716;2023-02-15T08:59:38;100067.06;;;2.07;100.00
11542;BME280;5827;49.482;7.716;2023-02-15T09:01:40;100070.94;;;2.21;100.00
11542;BME280;5827;49.482;7.716;2023-02-15T09:03:43;100072.63;;;2.30;100.00
11542;BME280;5827;49.482;7.716;2023-02-15T09:05:45;100059.19;;;1.89;100.00
11542;BME280;5827;49.482;7.716;2023-02-15T09:07:47;100066.72;;;1.58;100.00
11542;BME280;5827;49.482;7.716;2023-02-15T09:09:48;100064.44;;;2.15;100.00
11542;BME280;5827;49.482;7.716;2023-02-15T09:11:51;100073.28;;;2.32;100.00
11542;BME280;5827;49.482;7.716;2023-02-15T09:13:54;100064.09;;;2.10;100.00
11542;BME280;5827;49.482;7.716;2023-02-15T09:15:59;100065.44;;;2.14;100.00
11542;BME280;5827;49.482;7.716;2023-02-15T09:18:00;100072.88;;;2.45;100.00
11542;BME280;5827;49.482;7.716;2023-02-15T09:20:08;100084.34;;;2.70;100.00
11542;BME280;5827;49.482;7.716;2023-02-15T09:22:10;100092.19;;;2.88;100.00
11542;BME280;5827;49.482;7.716;2023-02-15T09:24:13;100096.16;;;2.84;100.00
11542;BME280;5827;49.482;7.716;2023-02-15T09:26:16;100094.69;;;2.89;100.00
11542;BME280;5827;49.482;7.716;2023-02-15T09:28:18;100084.00;;;2.65;100.00
11542;BME280;5827;49.482;7.716;2023-02-15T09:30:20;100085.97;;;2.54;100.00
11542;BME280;5827;49.482;7.716;2023-02-15T09:32:22;100080.75;;;2.71;100.00
11542;BME280;5827;49.482;7.716;2023-02-15T09:34:23;100088.44;;;2.98;100.00
11542;BME280;5827;49.482;7.716;2023-02-15T09:36:28;100089.16;;;3.17;100.00
11542;BME280;5827;49.482;7.716;2023-02-15T09:38:29;100080.22;;;1.99;100.00
11542;BME280;5827;49.482;7.716;2023-02-15T09:40:37;100074.22;;;2.49;100.00
11542;BME280;5827;49.482;7.716;2023-02-15T09:43:06;100075.84;;;3.00;100.00
11542;BME280;5827;49.482;7.716;2023-02-15T09:45:28;100092.75;;;3.16;100.00
11542;BME280;5827;49.482;7.716;2023-02-15T09:47:46;100089.16;;;3.33;100.00
11542;BME280;5827;49.482;7.716;2023-02-15T09:49:55;100094.78;;;3.46;99.58
11542;BME280;5827;49.482;7.716;2023-02-15T09:52:17;100096.78;;;3.61;99.50
11542;BME280;5827;49.482;7.716;2023-02-15T09:54:44;100102.41;;;3.66;98.04
11542;BME280;5827;49.482;7.716;2023-02-15T09:56:52;100103.91;;;3.60;97.41
11542;BME280;5827;49.482;7.716;2023-02-15T09:59:04;100096.78;;;3.61;97.89
11542;BME280;5827;49.482;7.716;2023-02-15T10:01:16;100097.47;;;3.54;98.05
11542;BME280;5827;49.482;7.716;2023-02-15T10:03:40;100093.63;;;3.57;97.08
11542;BME280;5827;49.482;7.716;2023-02-15T10:05:54;100090.81;;;3.75;98.18
11542;BME280;5827;49.482;7.716;2023-02-15T10:08:21;100093.50;;;3.59;96.97
11542;BME280;5827;49.482;7.716;2023-02-15T10:10:34;100086.66;;;3.97;97.40
11542;BME280;5827;49.482;7.716;2023-02-15T10:13:15;100098.13;;;3.73;97.38
11542;BME280;5827;49.482;7.716;2023-02-15T10:15:32;100092.66;;;3.82;96.69
11542;BME280;5827;49.482;7.716;2023-02-15T10:17:46;100102.09;;;3.85;95.42
11542;BME280;5827;49.482;7.716;2023-02-15T10:19:59;100086.19;;;3.85;97.34
11542;BME280;5827;49.482;7.716;2023-02-15T10:22:13;100087.34;;;3.99;95.15
11542;BME280;5827;49.482;7.716;2023-02-15T10:24:43;100086.66;;;4.13;94.86
11542;BME280;5827;49.482;7.716;2023-02-15T10:26:47;100083.19;;;3.88;93.92
11542;BME280;5827;49.482;7.716;2023-02-15T10:28:50;100087.34;;;3.91;94.32
11542;BME280;5827;49.482;7.716;2023-02-15T10:30:57;100081.34;;;3.97;94.67
11542;BME280;5827;49.482;7.716;2023-02-15T10:33:10;100080.22;;;3.99;96.16
11542;BME280;5827;49.482;7.716;2023-02-15T10:35:20;100075.59;;;3.69;95.57
11542;BME280;5827;49.482;7.716;2023-02-15T10:37:35;100075.34;;;4.27;96.13
11542;BME280;5827;49.482;7.716;2023-02-15T10:39:48;100079.00;;;4.18;94.39
11542;BME280;5827;49.482;7.716;2023-02-15T10:41:57;100070.66;;;4.38;95.36
11542;BME280;5827;49.482;7.716;2023-02-15T10:44:17;100077.50;;;4.16;93.58
11542;BME280;5827;49.482;7.716;2023-02-15T10:46:33;100070.22;;;4.10;96.21
11542;BME280;5827;49.482;7.716;2023-02-15T10:48:52;100065.44;;;4.52;96.04
11542;BME280;5827;49.482;7.716;2023-02-15T10:51:01;100070.06;;;4.11;94.55
11542;BME280;5827;49.482;7.716;2023-02-15T10:53:15;100066.44;;;4.59;95.61
11542;BME280;5827;49.482;7.716;2023-02-15T10:55:25;100067.13;;;4.84;94.25
11542;BME280;5827;49.482;7.716;2023-02-15T10:57:37;100061.75;;;4.22;94.51
11542;BME280;5827;49.482;7.716;2023-02-15T10:59:50;100059.78;;;4.64;95.17
11542;BME280;5827;49.482;7.716;2023-02-15T11:02:00;100065.34;;;4.77;94.34
11542;BME280;5827;49.482;7.716;2023-02-15T11:04:14;100056.88;;;4.42;94.63
11542;BME280;5827;49.482;7.716;2023-02-15T11:06:25;100044.94;;;3.82;97.01